createdAt,value
2023-02-16T00:00:34.476Z,1018.88
2023-02-16T00:01:34.482Z,1018.88
2023-02-16T00:02:34.560Z,1018.89
2023-02-16T00:03:34.577Z,1018.88
2023-02-16T00:04:34.445Z,1018.87
2023-02-16T00:05:34.423Z,1018.87
2023-02-16T00:06:34.419Z,1018.88
2023-02-16T00:07:34.426Z,1018.89
2023-02-16T00:08:34.411Z,1018.88
2023-02-16T00:09:34.384Z,1018.88
2023-02-16T00:10:34.386Z,1018.89
2023-02-16T00:11:34.370Z,1018.89
2023-02-16T00:12:34.371Z,1018.88
2023-02-16T00:13:34.368Z,1018.89
2023-02-16T00:14:34.350Z,1018.90
2023-02-16T00:15:34.338Z,1018.91
2023-02-16T00:16:34.324Z,1018.92
2023-02-16T00:17:34.307Z,1018.91
2023-02-16T00:18:34.292Z,1018.92
2023-02-16T00:19:34.290Z,1018.94
2023-02-16T00:20:34.274Z,1018.96
2023-02-16T00:21:34.259Z,1018.96
2023-02-16T00:22:34.354Z,1018.95
2023-02-16T00:23:34.238Z,1018.95
2023-02-16T00:24:34.268Z,1018.94
2023-02-16T00:25:34.330Z,1018.94
2023-02-16T00:26:34.218Z,1018.94
2023-02-16T00:27:34.196Z,1018.93
2023-02-16T00:28:34.213Z,1018.92
2023-02-16T00:29:34.218Z,1018.90
2023-02-16T00:30:34.386Z,1018.90
2023-02-16T00:31:34.343Z,1018.93
2023-02-16T00:32:34.216Z,1018.93
2023-02-16T00:33:34.246Z,1018.93
2023-02-16T00:34:34.189Z,1018.93
2023-02-16T00:35:34.143Z,1018.93
2023-02-16T00:36:34.133Z,1018.93
2023-02-16T00:37:34.127Z,1018.94
2023-02-16T00:38:34.129Z,1018.93
2023-02-16T00:39:34.098Z,1018.93
2023-02-16T00:40:34.102Z,1018.94
2023-02-16T00:41:34.062Z,1018.96
2023-02-16T00:42:34.059Z,1018.96
2023-02-16T00:43:34.194Z,1018.95
2023-02-16T00:44:34.038Z,1018.94
2023-02-16T00:45:34.017Z,1018.92
2023-02-16T00:46:34.067Z,1018.91
2023-02-16T00:47:33.996Z,1018.89
2023-02-16T00:48:34.250Z,1018.89
2023-02-16T00:49:33.995Z,1018.91
2023-02-16T00:50:33.976Z,1018.92
2023-02-16T00:51:33.961Z,1018.92
2023-02-16T00:52:33.986Z,1018.91
2023-02-16T00:53:33.983Z,1018.91
2023-02-16T00:54:33.961Z,1018.91
2023-02-16T00:55:33.927Z,1018.90
2023-02-16T00:56:33.949Z,1018.90
2023-02-16T00:57:33.905Z,1018.90
2023-02-16T00:58:33.913Z,1018.90
2023-02-16T00:59:33.879Z,1018.90
2023-02-16T01:00:33.883Z,1018.90
2023-02-16T01:01:33.972Z,1018.90
2023-02-16T01:02:33.892Z,1018.89
2023-02-16T01:03:33.918Z,1018.89
2023-02-16T01:04:33.895Z,1018.89
2023-02-16T01:05:33.820Z,1018.88
2023-02-16T01:06:33.834Z,1018.87
2023-02-16T01:07:33.849Z,1018.86
2023-02-16T01:08:33.808Z,1018.87
2023-02-16T01:09:33.775Z,1018.88
2023-02-16T01:10:33.803Z,1018.89
2023-02-16T01:11:33.766Z,1018.89
2023-02-16T01:12:33.753Z,1018.88
2023-02-16T01:13:33.777Z,1018.86
2023-02-16T01:14:33.729Z,1018.85
2023-02-16T01:15:33.783Z,1018.85
2023-02-16T01:16:33.714Z,1018.85
2023-02-16T01:17:33.703Z,1018.86
2023-02-16T01:18:33.900Z,1018.88
2023-02-16T01:19:33.706Z,1018.88
2023-02-16T01:20:33.672Z,1018.87
2023-02-16T01:21:33.692Z,1018.87
2023-02-16T01:22:33.646Z,1018.86
2023-02-16T01:23:33.666Z,1018.84
2023-02-16T01:24:33.641Z,1018.82
2023-02-16T01:25:33.632Z,1018.81
2023-02-16T01:26:33.617Z,1018.82
2023-02-16T01:27:33.634Z,1018.81
2023-02-16T01:28:33.603Z,1018.81
2023-02-16T01:29:33.574Z,1018.80
2023-02-16T01:30:33.593Z,1018.80
2023-02-16T01:31:33.714Z,1018.78
2023-02-16T01:32:33.552Z,1018.77
2023-02-16T01:33:33.582Z,1018.77
2023-02-16T01:34:33.565Z,1018.77
2023-02-16T01:35:33.504Z,1018.77
2023-02-16T01:36:33.504Z,1018.76
2023-02-16T01:37:33.494Z,1018.75
2023-02-16T01:38:33.556Z,1018.72
2023-02-16T01:39:33.477Z,1018.70
2023-02-16T01:40:33.465Z,1018.70
2023-02-16T01:41:33.447Z,1018.69
2023-02-16T01:42:33.439Z,1018.66
2023-02-16T01:43:33.459Z,1018.64
2023-02-16T01:44:33.429Z,1018.63
2023-02-16T01:45:33.410Z,1018.62
2023-02-16T01:46:33.464Z,1018.62
2023-02-16T01:47:33.385Z,1018.62
2023-02-16T01:48:33.406Z,1018.61
2023-02-16T01:49:33.370Z,1018.61
2023-02-16T01:50:33.370Z,1018.61
2023-02-16T01:51:33.346Z,1018.62
2023-02-16T01:52:33.385Z,1018.63
2023-02-16T01:53:33.325Z,1018.63
2023-02-16T01:54:33.348Z,1018.63
2023-02-16T01:55:33.307Z,1018.64
2023-02-16T01:56:33.329Z,1018.63
2023-02-16T01:57:33.292Z,1018.63
2023-02-16T01:58:33.411Z,1018.61
2023-02-16T01:59:33.264Z,1018.61
2023-02-16T02:00:33.260Z,1018.61
2023-02-16T02:01:33.282Z,1018.61
2023-02-16T02:02:33.262Z,1018.60
2023-02-16T02:03:33.272Z,1018.61
2023-02-16T02:04:33.235Z,1018.62
2023-02-16T02:05:33.208Z,1018.63
2023-02-16T02:06:33.204Z,1018.65
2023-02-16T02:07:33.189Z,1018.66
2023-02-16T02:08:33.219Z,1018.66
2023-02-16T02:09:33.170Z,1018.66
2023-02-16T02:10:33.166Z,1018.65
2023-02-16T02:11:33.148Z,1018.63
2023-02-16T02:12:33.154Z,1018.63
2023-02-16T02:13:33.158Z,1018.60
2023-02-16T02:14:33.116Z,1018.59
2023-02-16T02:15:33.111Z,1018.61
2023-02-16T02:16:33.098Z,1018.61
2023-02-16T02:17:33.079Z,1018.59
2023-02-16T02:18:33.084Z,1018.58
2023-02-16T02:19:33.063Z,1018.58
2023-02-16T02:20:33.053Z,1018.59
2023-02-16T02:21:33.040Z,1018.57
2023-02-16T02:22:33.041Z,1018.55
2023-02-16T02:23:33.040Z,1018.52
2023-02-16T02:24:33.011Z,1018.49
2023-02-16T02:25:33.004Z,1018.47
2023-02-16T02:26:32.993Z,1018.46
2023-02-16T02:27:32.992Z,1018.46
2023-02-16T02:28:32.991Z,1018.48
2023-02-16T02:29:32.954Z,1018.49
2023-02-16T02:30:33.091Z,1018.50
2023-02-16T02:31:33.034Z,1018.52
2023-02-16T02:32:32.941Z,1018.54
2023-02-16T02:33:32.916Z,1018.56
2023-02-16T02:34:32.920Z,1018.56
2023-02-16T02:35:32.901Z,1018.54
2023-02-16T02:36:32.890Z,1018.52
2023-02-16T02:37:32.910Z,1018.50
2023-02-16T02:38:32.884Z,1018.50
2023-02-16T02:39:32.892Z,1018.51
2023-02-16T02:40:32.854Z,1018.51
2023-02-16T02:41:32.838Z,1018.51
2023-02-16T02:42:32.837Z,1018.51
2023-02-16T02:43:32.827Z,1018.50
2023-02-16T02:44:32.816Z,1018.48
2023-02-16T02:45:32.805Z,1018.45
2023-02-16T02:46:32.815Z,1018.44
2023-02-16T02:47:32.830Z,1018.45
2023-02-16T02:48:32.779Z,1018.47
2023-02-16T02:49:32.770Z,1018.48
2023-02-16T02:50:32.754Z,1018.47
2023-02-16T02:51:32.739Z,1018.46
2023-02-16T02:52:32.749Z,1018.43
2023-02-16T02:53:32.740Z,1018.41
2023-02-16T02:54:32.738Z,1018.39
2023-02-16T02:55:32.700Z,1018.38
2023-02-16T02:56:32.688Z,1018.39
2023-02-16T02:57:32.678Z,1018.38
2023-02-16T02:58:32.686Z,1018.37
2023-02-16T02:59:32.663Z,1018.36
2023-02-16T03:00:32.793Z,1018.33
2023-02-16T03:01:32.641Z,1018.31
2023-02-16T03:02:32.631Z,1018.30
2023-02-16T03:03:32.632Z,1018.29
2023-02-16T03:04:32.616Z,1018.28
2023-02-16T03:05:32.600Z,1018.28
2023-02-16T03:06:32.594Z,1018.29
2023-02-16T03:07:32.581Z,1018.28
2023-02-16T03:08:32.591Z,1018.28
2023-02-16T03:09:32.555Z,1018.29
2023-02-16T03:10:32.558Z,1018.31
2023-02-16T03:11:32.535Z,1018.30
2023-02-16T03:12:32.536Z,1018.29
2023-02-16T03:13:32.564Z,1018.28
2023-02-16T03:14:32.516Z,1018.27
2023-02-16T03:15:32.497Z,1018.29
2023-02-16T03:16:32.547Z,1018.31
2023-02-16T03:17:32.510Z,1018.31
2023-02-16T03:18:32.485Z,1018.32
2023-02-16T03:19:32.461Z,1018.32
2023-02-16T03:20:32.465Z,1018.31
2023-02-16T03:21:32.434Z,1018.29
2023-02-16T03:22:32.431Z,1018.29
2023-02-16T03:23:32.421Z,1018.29
2023-02-16T03:24:32.412Z,1018.28
2023-02-16T03:25:32.391Z,1018.29
2023-02-16T03:26:32.408Z,1018.30
2023-02-16T03:27:32.366Z,1018.29
2023-02-16T03:28:32.396Z,1018.28
2023-02-16T03:29:32.350Z,1018.25
2023-02-16T03:30:32.499Z,1018.25
2023-02-16T03:31:32.519Z,1018.25
2023-02-16T03:32:32.331Z,1018.26
2023-02-16T03:33:32.325Z,1018.28
2023-02-16T03:34:32.298Z,1018.29
2023-02-16T03:35:32.292Z,1018.31
2023-02-16T03:36:32.313Z,1018.33
2023-02-16T03:37:32.276Z,1018.33
2023-02-16T03:38:32.279Z,1018.33
2023-02-16T03:39:32.272Z,1018.33
2023-02-16T03:40:32.248Z,1018.32
2023-02-16T03:41:32.230Z,1018.30
2023-02-16T03:42:32.214Z,1018.31
2023-02-16T03:43:32.239Z,1018.35
2023-02-16T03:44:32.205Z,1018.35
2023-02-16T03:45:32.214Z,1018.33
2023-02-16T03:46:32.196Z,1018.34
2023-02-16T03:47:32.170Z,1018.33
2023-02-16T03:48:32.178Z,1018.31
2023-02-16T03:49:32.160Z,1018.30
2023-02-16T03:50:32.142Z,1018.31
2023-02-16T03:51:32.188Z,1018.31
2023-02-16T03:52:32.118Z,1018.29
2023-02-16T03:53:32.118Z,1018.28
2023-02-16T03:54:32.112Z,1018.27
2023-02-16T03:55:32.104Z,1018.24
2023-02-16T03:56:32.076Z,1018.23
2023-02-16T03:57:32.086Z,1018.22
2023-02-16T03:58:32.088Z,1018.21
2023-02-16T03:59:32.048Z,1018.23
2023-02-16T04:00:32.077Z,1018.24
2023-02-16T04:01:32.042Z,1018.24
2023-02-16T04:02:32.098Z,1018.25
2023-02-16T04:03:32.040Z,1018.26
2023-02-16T04:04:32.069Z,1018.26
2023-02-16T04:05:31.990Z,1018.26
2023-02-16T04:06:31.984Z,1018.25
2023-02-16T04:07:32.025Z,1018.24
2023-02-16T04:08:31.999Z,1018.24
2023-02-16T04:09:31.975Z,1018.25
2023-02-16T04:10:31.976Z,1018.25
2023-02-16T04:11:31.957Z,1018.24
2023-02-16T04:12:31.924Z,1018.24
2023-02-16T04:13:31.980Z,1018.24
2023-02-16T04:14:31.922Z,1018.25
2023-02-16T04:15:31.917Z,1018.27
2023-02-16T04:16:31.939Z,1018.27
2023-02-16T04:17:31.899Z,1018.28
2023-02-16T04:18:31.904Z,1018.28
2023-02-16T04:19:31.877Z,1018.29
2023-02-16T04:20:31.842Z,1018.28
2023-02-16T04:21:31.886Z,1018.24
2023-02-16T04:22:31.822Z,1018.21
2023-02-16T04:23:31.822Z,1018.20
2023-02-16T04:24:31.834Z,1018.23
2023-02-16T04:25:31.787Z,1018.26
2023-02-16T04:26:31.792Z,1018.27
2023-02-16T04:27:31.777Z,1018.26
2023-02-16T04:28:31.757Z,1018.24
2023-02-16T04:29:31.761Z,1018.24
2023-02-16T04:30:31.927Z,1018.24
2023-02-16T04:31:31.870Z,1018.23
2023-02-16T04:32:31.737Z,1018.23
2023-02-16T04:33:31.720Z,1018.22
2023-02-16T04:34:31.725Z,1018.22
2023-02-16T04:35:31.696Z,1018.20
2023-02-16T04:36:31.717Z,1018.21
2023-02-16T04:37:31.663Z,1018.21
2023-02-16T04:38:31.690Z,1018.22
2023-02-16T04:39:31.685Z,1018.23
2023-02-16T04:40:31.633Z,1018.23
2023-02-16T04:41:31.642Z,1018.23
2023-02-16T04:42:31.627Z,1018.21
2023-02-16T04:43:31.635Z,1018.21
2023-02-16T04:44:31.630Z,1018.21
2023-02-16T04:45:31.596Z,1018.22
2023-02-16T04:46:31.569Z,1018.22
2023-02-16T04:47:31.582Z,1018.22
2023-02-16T04:48:31.564Z,1018.20
2023-02-16T04:49:31.561Z,1018.19
2023-02-16T04:50:31.543Z,1018.19
2023-02-16T04:51:31.536Z,1018.19
2023-02-16T04:52:31.533Z,1018.17
2023-02-16T04:53:31.518Z,1018.18
2023-02-16T04:54:31.525Z,1018.17
2023-02-16T04:55:31.480Z,1018.17
2023-02-16T04:56:31.480Z,1018.17
2023-02-16T04:57:31.466Z,1018.17
2023-02-16T04:58:31.468Z,1018.16
2023-02-16T04:59:31.457Z,1018.15
2023-02-16T05:00:31.424Z,1018.14
2023-02-16T05:01:31.434Z,1018.12
2023-02-16T05:02:31.431Z,1018.10
2023-02-16T05:03:31.430Z,1018.09
2023-02-16T05:04:31.502Z,1018.11
2023-02-16T05:05:31.394Z,1018.12
2023-02-16T05:06:31.369Z,1018.11
2023-02-16T05:07:31.357Z,1018.11
2023-02-16T05:08:31.369Z,1018.11
2023-02-16T05:09:31.372Z,1018.12
2023-02-16T05:10:31.349Z,1018.12
2023-02-16T05:11:31.336Z,1018.11
2023-02-16T05:12:31.304Z,1018.10
2023-02-16T05:13:31.376Z,1018.12
2023-02-16T05:14:31.343Z,1018.14
2023-02-16T05:15:31.343Z,1018.15
2023-02-16T05:16:31.279Z,1018.15
2023-02-16T05:17:31.271Z,1018.15
2023-02-16T05:18:31.262Z,1018.15
2023-02-16T05:19:31.490Z,1018.17
2023-02-16T05:20:31.228Z,1018.19
2023-02-16T05:21:31.231Z,1018.22
2023-02-16T05:22:31.247Z,1018.24
2023-02-16T05:23:31.213Z,1018.25
2023-02-16T05:24:31.203Z,1018.26
2023-02-16T05:25:31.180Z,1018.28
2023-02-16T05:26:31.174Z,1018.30
2023-02-16T05:27:31.182Z,1018.32
2023-02-16T05:28:31.339Z,1018.34
2023-02-16T05:29:31.153Z,1018.33
2023-02-16T05:30:31.234Z,1018.33
2023-02-16T05:31:31.247Z,1018.34
2023-02-16T05:32:31.107Z,1018.36
2023-02-16T05:33:31.099Z,1018.36
2023-02-16T05:34:31.120Z,1018.35
2023-02-16T05:35:31.084Z,1018.31
2023-02-16T05:36:31.065Z,1018.29
2023-02-16T05:37:31.061Z,1018.28
2023-02-16T05:38:31.052Z,1018.27
2023-02-16T05:39:31.053Z,1018.27
2023-02-16T05:40:31.043Z,1018.29
2023-02-16T05:41:31.048Z,1018.29
2023-02-16T05:42:31.008Z,1018.28
2023-02-16T05:43:31.026Z,1018.26
2023-02-16T05:44:31.006Z,1018.23
2023-02-16T05:45:30.982Z,1018.21
2023-02-16T05:46:31.004Z,1018.20
2023-02-16T05:47:30.966Z,1018.19
2023-02-16T05:48:30.962Z,1018.18
2023-02-16T05:49:30.971Z,1018.18
2023-02-16T05:50:30.891Z,1018.19
2023-02-16T05:51:30.878Z,1018.19
2023-02-16T05:52:30.886Z,1018.20
2023-02-16T05:53:30.912Z,1018.18
2023-02-16T05:54:30.913Z,1018.17
2023-02-16T05:55:30.857Z,1018.16
2023-02-16T05:56:30.816Z,1018.18
2023-02-16T05:57:30.828Z,1018.18
2023-02-16T05:58:30.798Z,1018.18
2023-02-16T05:59:30.833Z,1018.19
2023-02-16T06:00:30.798Z,1018.22
2023-02-16T06:01:30.801Z,1018.26
2023-02-16T06:02:30.823Z,1018.31
2023-02-16T06:03:30.776Z,1018.33
2023-02-16T06:04:30.777Z,1018.35
2023-02-16T06:05:30.742Z,1018.35
2023-02-16T06:06:30.757Z,1018.35
2023-02-16T06:07:30.731Z,1018.37
2023-02-16T06:08:30.696Z,1018.39
2023-02-16T06:09:30.734Z,1018.40
2023-02-16T06:10:30.686Z,1018.41
2023-02-16T06:11:30.768Z,1018.43
2023-02-16T06:12:30.663Z,1018.42
2023-02-16T06:13:30.684Z,1018.42
2023-02-16T06:14:30.647Z,1018.41
2023-02-16T06:15:30.657Z,1018.39
2023-02-16T06:16:30.625Z,1018.38
2023-02-16T06:17:30.620Z,1018.36
2023-02-16T06:18:30.616Z,1018.35
2023-02-16T06:19:30.646Z,1018.35
2023-02-16T06:20:30.737Z,1018.37
2023-02-16T06:21:30.683Z,1018.37
2023-02-16T06:22:30.569Z,1018.38
2023-02-16T06:23:30.578Z,1018.39
2023-02-16T06:24:30.585Z,1018.40
2023-02-16T06:25:30.561Z,1018.41
2023-02-16T06:26:30.530Z,1018.43
2023-02-16T06:27:30.535Z,1018.45
2023-02-16T06:28:30.498Z,1018.47
2023-02-16T06:29:30.507Z,1018.46
2023-02-16T06:30:30.540Z,1018.44
2023-02-16T06:31:30.620Z,1018.43
2023-02-16T06:32:30.568Z,1018.44
2023-02-16T06:33:30.465Z,1018.43
2023-02-16T06:34:30.438Z,1018.45
2023-02-16T06:35:30.433Z,1018.47
2023-02-16T06:36:30.466Z,1018.45
2023-02-16T06:37:30.417Z,1018.45
2023-02-16T06:38:30.441Z,1018.47
2023-02-16T06:39:30.394Z,1018.47
2023-02-16T06:40:30.388Z,1018.47
2023-02-16T06:41:30.384Z,1018.48
2023-02-16T06:42:30.359Z,1018.49
2023-02-16T06:43:30.968Z,1018.48
2023-02-16T06:44:30.373Z,1018.49
2023-02-16T06:45:30.331Z,1018.49
2023-02-16T06:46:30.429Z,1018.50
2023-02-16T06:47:30.309Z,1018.51
2023-02-16T06:48:30.327Z,1018.52
2023-02-16T06:49:30.318Z,1018.51
2023-02-16T06:50:30.272Z,1018.51
2023-02-16T06:51:30.294Z,1018.53
2023-02-16T06:52:30.266Z,1018.54
2023-02-16T06:53:30.262Z,1018.56
2023-02-16T06:54:30.251Z,1018.56
2023-02-16T06:55:30.229Z,1018.57
2023-02-16T06:56:30.230Z,1018.57
2023-02-16T06:57:30.208Z,1018.58
2023-02-16T06:58:30.225Z,1018.60
2023-02-16T06:59:30.210Z,1018.59
2023-02-16T07:00:30.326Z,1018.58
2023-02-16T07:01:30.987Z,1018.58
2023-02-16T07:02:30.159Z,1018.59
2023-02-16T07:03:30.207Z,1018.59
2023-02-16T07:04:30.148Z,1018.56
2023-02-16T07:05:30.132Z,1018.56
2023-02-16T07:06:30.108Z,1018.53
2023-02-16T07:07:30.105Z,1018.51
2023-02-16T07:08:30.090Z,1018.51
2023-02-16T07:09:30.123Z,1018.53
2023-02-16T07:10:40.348Z,1018.55
2023-02-16T07:11:30.149Z,1018.57
2023-02-16T07:12:30.055Z,1018.58
2023-02-16T07:13:30.045Z,1018.58
2023-02-16T07:14:30.045Z,1018.59
2023-02-16T07:15:30.037Z,1018.61
2023-02-16T07:16:30.150Z,1018.62
2023-02-16T07:17:30.010Z,1018.63
2023-02-16T07:18:30.027Z,1018.61
2023-02-16T07:19:29.990Z,1018.58
2023-02-16T07:20:29.966Z,1018.53
2023-02-16T07:21:29.959Z,1018.50
2023-02-16T07:22:30.008Z,1018.51
2023-02-16T07:23:29.955Z,1018.53
2023-02-16T07:24:29.932Z,1018.54
2023-02-16T07:25:29.921Z,1018.52
2023-02-16T07:26:29.913Z,1018.49
2023-02-16T07:27:29.899Z,1018.49
2023-02-16T07:28:29.897Z,1018.52
2023-02-16T07:29:29.892Z,1018.52
2023-02-16T07:30:29.951Z,1018.51
2023-02-16T07:31:30.001Z,1018.49
2023-02-16T07:32:29.896Z,1018.44
2023-02-16T07:33:29.822Z,1018.44
2023-02-16T07:34:29.840Z,1018.46
2023-02-16T07:35:29.806Z,1018.52
2023-02-16T07:36:29.795Z,1018.52
2023-02-16T07:37:29.839Z,1018.51
2023-02-16T07:38:29.774Z,1018.48
2023-02-16T07:39:29.779Z,1018.46
2023-02-16T07:40:29.755Z,1018.44
2023-02-16T07:41:29.760Z,1018.41
2023-02-16T07:42:29.751Z,1018.39
2023-02-16T07:43:29.734Z,1018.39
2023-02-16T07:44:29.713Z,1018.38
2023-02-16T07:45:29.748Z,1018.38
2023-02-16T07:46:31.667Z,1018.38
2023-02-16T07:47:29.695Z,1018.40
2023-02-16T07:48:29.708Z,1018.40
2023-02-16T07:49:29.649Z,1018.39
2023-02-16T07:50:29.655Z,1018.38
2023-02-16T07:51:29.646Z,1018.37
2023-02-16T07:52:29.623Z,1018.37
2023-02-16T07:53:29.630Z,1018.36
2023-02-16T07:54:29.605Z,1018.39
2023-02-16T07:55:29.582Z,1018.40
2023-02-16T07:56:29.599Z,1018.43
2023-02-16T07:57:29.563Z,1018.43
2023-02-16T07:58:29.584Z,1018.44
2023-02-16T07:59:29.567Z,1018.43
2023-02-16T08:00:29.547Z,1018.44
2023-02-16T08:01:29.525Z,1018.42
2023-02-16T08:02:29.677Z,1018.42
2023-02-16T08:03:29.563Z,1018.42
2023-02-16T08:04:29.503Z,1018.42
2023-02-16T08:05:29.474Z,1018.44
2023-02-16T08:06:29.476Z,1018.46
2023-02-16T08:07:29.450Z,1018.49
2023-02-16T08:08:29.487Z,1018.51
2023-02-16T08:09:29.436Z,1018.53
2023-02-16T08:10:29.513Z,1018.54
2023-02-16T08:11:29.414Z,1018.55
2023-02-16T08:12:29.423Z,1018.54
2023-02-16T08:13:29.384Z,1018.54
2023-02-16T08:14:29.403Z,1018.52
2023-02-16T08:15:29.419Z,1018.49
2023-02-16T08:16:29.438Z,1018.47
2023-02-16T08:17:29.370Z,1018.46
2023-02-16T08:18:29.353Z,1018.46
2023-02-16T08:19:29.366Z,1018.44
2023-02-16T08:20:48.183Z,1018.45
2023-02-16T08:21:29.350Z,1018.45
2023-02-16T08:22:29.308Z,1018.46
2023-02-16T08:23:29.369Z,1018.49
2023-02-16T08:24:29.298Z,1018.52
2023-02-16T08:25:29.265Z,1018.51
2023-02-16T08:26:29.263Z,1018.52
2023-02-16T08:27:29.251Z,1018.51
2023-02-16T08:28:29.289Z,1018.51
2023-02-16T08:29:29.264Z,1018.51
2023-02-16T08:30:29.305Z,1018.55
2023-02-16T08:31:29.365Z,1018.58
2023-02-16T08:32:29.234Z,1018.59
2023-02-16T08:33:29.206Z,1018.58
2023-02-16T08:34:29.177Z,1018.57
2023-02-16T08:35:29.225Z,1018.56
2023-02-16T08:36:29.166Z,1018.56
2023-02-16T08:37:29.141Z,1018.55
2023-02-16T08:38:29.154Z,1018.54
2023-02-16T08:39:29.134Z,1018.54
2023-02-16T08:40:29.137Z,1018.53
2023-02-16T08:41:29.099Z,1018.54
2023-02-16T08:42:29.105Z,1018.53
2023-02-16T08:43:29.095Z,1018.55
2023-02-16T08:44:29.105Z,1018.50
2023-02-16T08:45:29.119Z,1018.49
2023-02-16T08:46:29.119Z,1018.47
2023-02-16T08:47:29.037Z,1018.44
2023-02-16T08:48:29.055Z,1018.42
2023-02-16T08:49:29.028Z,1018.42
2023-02-16T08:50:29.043Z,1018.47
2023-02-16T08:51:29.014Z,1018.47
2023-02-16T08:52:28.995Z,1018.46
2023-02-16T08:53:29.031Z,1018.42
2023-02-16T08:54:29.009Z,1018.40
2023-02-16T08:55:28.984Z,1018.38
2023-02-16T08:56:28.951Z,1018.35
2023-02-16T08:57:28.924Z,1018.31
2023-02-16T08:58:29.024Z,1018.29
2023-02-16T08:59:29.201Z,1018.29
2023-02-16T09:00:28.914Z,1018.27
2023-02-16T09:01:28.952Z,1018.29
2023-02-16T09:02:28.958Z,1018.34
2023-02-16T09:03:28.872Z,1018.36
2023-02-16T09:04:28.884Z,1018.36
2023-02-16T09:05:28.875Z,1018.34
2023-02-16T09:06:28.842Z,1018.32
2023-02-16T09:07:28.818Z,1018.32
2023-02-16T09:08:28.875Z,1018.33
2023-02-16T09:09:28.857Z,1018.30
2023-02-16T09:10:28.837Z,1018.29
2023-02-16T09:11:28.778Z,1018.28
2023-02-16T09:12:28.772Z,1018.29
2023-02-16T09:13:28.789Z,1018.30
2023-02-16T09:14:28.771Z,1018.30
2023-02-16T09:15:28.795Z,1018.31
2023-02-16T09:16:28.818Z,1018.30
2023-02-16T09:17:28.717Z,1018.27
2023-02-16T09:18:28.718Z,1018.24
2023-02-16T09:19:28.725Z,1018.22
2023-02-16T09:20:28.872Z,1018.19
2023-02-16T09:21:28.676Z,1018.17
2023-02-16T09:22:28.692Z,1018.21
2023-02-16T09:23:28.684Z,1018.22
2023-02-16T09:24:28.689Z,1018.27
2023-02-16T09:25:28.686Z,1018.31
2023-02-16T09:26:28.616Z,1018.34
2023-02-16T09:27:28.622Z,1018.35
2023-02-16T09:28:28.721Z,1018.33
2023-02-16T09:29:28.618Z,1018.31
2023-02-16T09:30:28.700Z,1018.31
2023-02-16T09:31:28.690Z,1018.30
2023-02-16T09:32:28.593Z,1018.29
2023-02-16T09:33:28.565Z,1018.29
2023-02-16T09:34:28.542Z,1018.28
2023-02-16T09:35:28.562Z,1018.28
2023-02-16T09:36:28.564Z,1018.30
2023-02-16T09:37:28.499Z,1018.26
2023-02-16T09:38:28.508Z,1018.26
2023-02-16T09:39:28.491Z,1018.26
2023-02-16T09:40:28.549Z,1018.24
2023-02-16T09:41:28.472Z,1018.25
2023-02-16T09:42:28.475Z,1018.24
2023-02-16T09:43:28.518Z,1018.27
2023-02-16T09:44:28.437Z,1018.28
2023-02-16T09:45:28.513Z,1018.28
2023-02-16T09:46:28.473Z,1018.27
2023-02-16T09:47:28.404Z,1018.27
2023-02-16T09:48:28.414Z,1018.28
2023-02-16T09:49:28.397Z,1018.29
2023-02-16T09:50:52.280Z,1018.28
2023-02-16T09:51:34.527Z,1018.31
2023-02-16T09:52:28.370Z,1018.31
2023-02-16T09:53:28.397Z,1018.31
2023-02-16T09:54:28.377Z,1018.28
2023-02-16T09:55:28.349Z,1018.25
2023-02-16T09:56:28.331Z,1018.26
2023-02-16T09:57:28.302Z,1018.20
2023-02-16T09:58:28.288Z,1018.19
2023-02-16T09:59:28.289Z,1018.16
2023-02-16T10:00:28.285Z,1018.15
2023-02-16T10:01:28.297Z,1018.19
2023-02-16T10:02:28.326Z,1018.16
2023-02-16T10:03:28.258Z,1018.15
2023-02-16T10:04:28.219Z,1018.16
2023-02-16T10:05:28.260Z,1018.16
2023-02-16T10:06:28.197Z,1018.16
2023-02-16T10:07:28.218Z,1018.17
2023-02-16T10:08:28.180Z,1018.20
2023-02-16T10:09:28.170Z,1018.18
2023-02-16T10:10:28.184Z,1018.18
2023-02-16T10:11:28.185Z,1018.18
2023-02-16T10:12:28.136Z,1018.17
2023-02-16T10:13:28.148Z,1018.15
2023-02-16T10:14:28.134Z,1018.15
2023-02-16T10:15:28.131Z,1018.15
2023-02-16T10:16:28.105Z,1018.15
2023-02-16T10:17:28.090Z,1018.14
2023-02-16T10:18:28.080Z,1018.11
2023-02-16T10:19:28.073Z,1018.14
2023-02-16T10:20:28.095Z,1018.12
2023-02-16T10:21:28.065Z,1018.15
2023-02-16T10:22:28.026Z,1018.12
2023-02-16T10:23:28.012Z,1018.11
2023-02-16T10:24:28.089Z,1018.13
2023-02-16T10:25:28.562Z,1018.16
2023-02-16T10:26:27.987Z,1018.17
2023-02-16T10:27:27.981Z,1018.16
2023-02-16T10:28:27.977Z,1018.17
2023-02-16T10:29:27.992Z,1018.18
2023-02-16T10:30:28.000Z,1018.20
2023-02-16T10:31:28.066Z,1018.22
2023-02-16T10:32:28.935Z,1018.22
2023-02-16T10:33:27.932Z,1018.23
2023-02-16T10:34:27.907Z,1018.25
2023-02-16T10:35:27.914Z,1018.22
2023-02-16T10:36:27.891Z,1018.25
2023-02-16T10:37:27.872Z,1018.23
2023-02-16T10:38:27.876Z,1018.22
2023-02-16T10:39:27.877Z,1018.21
2023-02-16T10:40:27.873Z,1018.22
2023-02-16T10:41:27.836Z,1018.19
2023-02-16T10:42:28.472Z,1018.17
2023-02-16T10:43:27.809Z,1018.16
2023-02-16T10:44:27.817Z,1018.15
2023-02-16T10:45:27.835Z,1018.12
2023-02-16T10:46:27.904Z,1018.09
2023-02-16T10:47:27.766Z,1018.05
2023-02-16T10:48:27.769Z,1018.04
2023-02-16T10:49:27.818Z,1018.03
2023-02-16T10:50:27.772Z,1018.04
2023-02-16T10:51:27.783Z,1018.04
2023-02-16T10:52:27.722Z,1018.03
2023-02-16T10:53:27.699Z,1018.02
2023-02-16T10:54:27.734Z,1017.97
2023-02-16T10:55:27.691Z,1017.98
2023-02-16T10:56:27.734Z,1017.97
2023-02-16T10:57:27.670Z,1017.96
2023-02-16T10:58:27.675Z,1017.97
2023-02-16T10:59:27.642Z,1017.96
2023-02-16T11:00:27.654Z,1017.98
2023-02-16T11:01:27.681Z,1017.94
2023-02-16T11:02:27.753Z,1017.91
2023-02-16T11:03:27.725Z,1017.93
2023-02-16T11:04:27.648Z,1017.91
2023-02-16T11:05:27.613Z,1017.90
2023-02-16T11:06:27.623Z,1017.91
2023-02-16T11:07:27.571Z,1017.91
2023-02-16T11:08:29.743Z,1017.92
2023-02-16T11:09:27.538Z,1017.89
2023-02-16T11:10:27.542Z,1017.87
2023-02-16T11:11:27.523Z,1017.87
2023-02-16T11:12:27.558Z,1017.86
2023-02-16T11:13:27.535Z,1017.86
2023-02-16T11:14:27.492Z,1017.85
2023-02-16T11:15:27.488Z,1017.85
2023-02-16T11:16:27.477Z,1017.87
2023-02-16T11:17:27.461Z,1017.87
2023-02-16T11:18:27.502Z,1017.88
2023-02-16T11:19:27.441Z,1017.85
2023-02-16T11:20:27.441Z,1017.83
2023-02-16T11:21:27.453Z,1017.82
2023-02-16T11:22:27.488Z,1017.81
2023-02-16T11:23:27.396Z,1017.82
2023-02-16T11:24:27.384Z,1017.83
2023-02-16T11:25:27.479Z,1017.81
2023-02-16T11:26:27.374Z,1017.81
2023-02-16T11:27:27.382Z,1017.83
2023-02-16T11:28:27.337Z,1017.82
2023-02-16T11:29:27.391Z,1017.81
2023-02-16T11:30:27.541Z,1017.78
2023-02-16T11:31:27.440Z,1017.76
2023-02-16T11:32:27.295Z,1017.75
2023-02-16T11:33:27.330Z,1017.75
2023-02-16T11:34:27.308Z,1017.76
2023-02-16T11:35:27.452Z,1017.74
2023-02-16T11:36:28.086Z,1017.75
2023-02-16T11:37:27.247Z,1017.71
2023-02-16T11:38:27.274Z,1017.70
2023-02-16T11:39:27.233Z,1017.72
2023-02-16T11:40:27.275Z,1017.67
2023-02-16T11:41:27.214Z,1017.65
2023-02-16T11:42:27.193Z,1017.66
2023-02-16T11:43:27.187Z,1017.63
2023-02-16T11:44:27.196Z,1017.63
2023-02-16T11:45:27.203Z,1017.61
2023-02-16T11:46:27.204Z,1017.60
2023-02-16T11:47:27.138Z,1017.62
2023-02-16T11:48:27.121Z,1017.61
2023-02-16T11:49:27.099Z,1017.61
2023-02-16T11:50:27.103Z,1017.63
2023-02-16T11:51:27.126Z,1017.65
2023-02-16T11:52:27.100Z,1017.62
2023-02-16T11:53:27.085Z,1017.61
2023-02-16T11:54:27.094Z,1017.59
2023-02-16T11:55:27.103Z,1017.56
2023-02-16T11:56:27.065Z,1017.53
2023-02-16T11:57:27.015Z,1017.51
2023-02-16T11:58:27.032Z,1017.54
2023-02-16T11:59:27.009Z,1017.50
2023-02-16T12:00:27.059Z,1017.50
2023-02-16T12:01:27.002Z,1017.47
2023-02-16T12:02:26.972Z,1017.47
2023-02-16T12:03:26.965Z,1017.41
2023-02-16T12:04:26.972Z,1017.45
2023-02-16T12:05:27.010Z,1017.41